createdAt,value
2024-02-01T00:02:13.070Z,81.85
2024-02-01T00:04:41.012Z,81.84
2024-02-01T00:07:09.112Z,81.82
2024-02-01T00:09:37.149Z,81.80
2024-02-01T00:12:05.432Z,81.61
2024-02-01T00:14:33.629Z,81.55
2024-02-01T00:17:01.712Z,81.52
2024-02-01T00:19:29.730Z,81.52
2024-02-01T00:21:57.931Z,81.54
2024-02-01T00:24:26.013Z,81.55
2024-02-01T00:26:54.078Z,81.57
2024-02-01T00:29:22.274Z,81.57
2024-02-01T00:31:50.225Z,81.60
2024-02-01T00:34:18.447Z,81.51
2024-02-01T00:36:46.451Z,81.47
2024-02-01T00:39:14.602Z,81.36
2024-02-01T00:41:42.623Z,81.31
2024-02-01T00:44:10.842Z,81.35
2024-02-01T00:46:38.714Z,81.46
2024-02-01T00:49:06.769Z,81.46
2024-02-01T00:51:34.915Z,81.48
2024-02-01T00:54:02.857Z,81.54
2024-02-01T00:56:31.057Z,81.49
2024-02-01T00:58:59.043Z,81.49
2024-02-01T01:01:27.053Z,81.34
2024-02-01T01:03:56.787Z,81.36
2024-02-01T01:06:25.114Z,81.21
2024-02-01T01:08:53.164Z,81.08
2024-02-01T01:11:21.179Z,80.94
2024-02-01T01:13:49.150Z,80.86
2024-02-01T01:16:17.084Z,80.95
2024-02-01T01:18:45.325Z,81.05
2024-02-01T01:21:13.618Z,81.07
2024-02-01T01:23:41.871Z,81.15
2024-02-01T01:26:09.950Z,81.15
2024-02-01T01:28:38.039Z,81.14
2024-02-01T01:31:05.895Z,81.17
2024-02-01T01:33:35.986Z,81.18
2024-02-01T01:36:04.291Z,81.14
2024-02-01T01:38:32.346Z,81.16
2024-02-01T01:41:00.249Z,81.15
2024-02-01T01:43:28.285Z,81.19
2024-02-01T01:46:04.678Z,81.17
2024-02-01T01:48:35.094Z,81.06
2024-02-01T01:51:04.037Z,81.05
2024-02-01T01:53:36.084Z,81.06
2024-02-01T01:56:04.146Z,81.07
2024-02-01T01:58:36.487Z,80.89
2024-02-01T02:01:05.445Z,80.62
2024-02-01T02:03:38.284Z,80.38
2024-02-01T02:06:06.624Z,80.29
2024-02-01T02:08:34.610Z,80.22
2024-02-01T02:11:02.766Z,80.24
2024-02-01T02:13:30.761Z,80.18
2024-02-01T02:15:58.629Z,80.19
2024-02-01T02:18:26.875Z,80.27
2024-02-01T02:20:56.016Z,80.05
2024-02-01T02:23:24.436Z,80.16
2024-02-01T02:25:52.423Z,80.19
2024-02-01T02:28:22.216Z,80.24
2024-02-01T02:30:50.397Z,80.27
2024-02-01T02:33:18.385Z,80.16
2024-02-01T02:35:46.385Z,80.31
2024-02-01T02:38:18.833Z,80.20
2024-02-01T02:40:46.830Z,80.16
2024-02-01T02:43:18.041Z,79.88
2024-02-01T02:45:46.203Z,80.09
2024-02-01T02:48:15.926Z,80.26
2024-02-01T02:50:44.236Z,80.00
2024-02-01T02:53:12.356Z,79.83
2024-02-01T02:55:40.427Z,79.74
2024-02-01T02:58:08.449Z,79.61
2024-02-01T03:00:36.352Z,79.66
2024-02-01T03:03:05.552Z,79.69
2024-02-01T03:05:34.197Z,79.61
2024-02-01T03:08:06.280Z,79.62
2024-02-01T03:10:34.435Z,79.68
2024-02-01T03:13:02.437Z,79.63
2024-02-01T03:15:30.719Z,79.57
2024-02-01T03:17:59.879Z,79.62
2024-02-01T03:20:28.692Z,79.61
2024-02-01T03:22:57.612Z,79.81
2024-02-01T03:25:30.233Z,79.77
2024-02-01T03:28:04.941Z,79.83
2024-02-01T03:30:34.608Z,79.83
2024-02-01T03:33:04.569Z,79.82
2024-02-01T03:35:35.936Z,79.92
2024-02-01T03:38:04.165Z,80.00
2024-02-01T03:40:32.991Z,79.91
2024-02-01T03:43:00.976Z,79.91
2024-02-01T03:45:30.719Z,79.86
2024-02-01T03:47:58.958Z,79.96
2024-02-01T03:50:27.181Z,79.91
2024-02-01T03:52:55.088Z,79.87
2024-02-01T03:55:23.745Z,79.85
2024-02-01T03:57:51.746Z,79.75
2024-02-01T04:00:26.398Z,79.60
2024-02-01T04:02:59.326Z,79.51
2024-02-01T04:05:28.745Z,79.60
2024-02-01T04:07:57.210Z,79.64
2024-02-01T04:10:25.262Z,79.75
2024-02-01T04:12:53.284Z,79.83
2024-02-01T04:15:21.217Z,79.87
2024-02-01T04:17:50.640Z,79.96
2024-02-01T04:20:19.482Z,79.92
2024-02-01T04:22:51.035Z,79.97
2024-02-01T04:25:19.161Z,79.96
2024-02-01T04:27:51.118Z,80.03
2024-02-01T04:30:20.183Z,80.08
2024-02-01T04:32:49.258Z,80.15
2024-02-01T04:35:17.961Z,80.25
2024-02-01T04:37:47.129Z,80.28
2024-02-01T04:40:15.247Z,80.36
2024-02-01T04:42:48.930Z,80.37
2024-02-01T04:45:17.074Z,80.47
2024-02-01T04:47:45.872Z,80.51
2024-02-01T04:50:14.708Z,80.49
2024-02-01T04:52:42.780Z,80.52
2024-02-01T04:55:13.588Z,80.53
2024-02-01T04:57:42.371Z,80.53
2024-02-01T05:00:19.837Z,80.58
2024-02-01T05:02:48.645Z,80.59
2024-02-01T05:05:18.394Z,80.64
2024-02-01T05:07:46.642Z,80.67
2024-02-01T05:10:14.933Z,80.65
2024-02-01T05:12:43.714Z,80.68
2024-02-01T05:15:15.048Z,80.65
2024-02-01T05:17:43.412Z,80.45
2024-02-01T05:20:13.066Z,80.51
2024-02-01T05:22:42.661Z,80.49
2024-02-01T05:25:17.392Z,80.45
2024-02-01T05:27:54.213Z,80.39
2024-02-01T05:30:23.945Z,80.34
2024-02-01T05:32:54.638Z,80.32
2024-02-01T05:35:29.074Z,80.33
2024-02-01T05:37:59.024Z,80.32
2024-02-01T05:40:27.133Z,80.31
2024-02-01T05:42:55.529Z,80.35
2024-02-01T05:45:24.227Z,80.33
2024-02-01T05:47:53.019Z,80.33
2024-02-01T05:50:21.624Z,80.39
2024-02-01T05:52:49.604Z,80.44
2024-02-01T05:55:17.543Z,80.46
2024-02-01T05:57:45.951Z,80.51
2024-02-01T06:00:20.890Z,80.58
2024-02-01T06:02:50.643Z,80.59
2024-02-01T06:05:20.736Z,80.65
2024-02-01T06:07:48.825Z,80.71
2024-02-01T06:10:16.926Z,80.73
2024-02-01T06:12:44.882Z,80.82
2024-02-01T06:15:13.497Z,80.96
2024-02-01T06:17:41.857Z,81.05
2024-02-01T06:20:13.288Z,81.06
2024-02-01T06:22:41.301Z,81.12
2024-02-01T06:25:13.863Z,81.16
2024-02-01T06:27:42.196Z,81.26
2024-02-01T06:30:14.194Z,81.24
2024-02-01T06:32:43.476Z,81.33
2024-02-01T06:35:19.439Z,81.35
2024-02-01T06:37:54.620Z,81.51
2024-02-01T06:40:41.722Z,81.67
2024-02-01T06:43:29.808Z,81.69
2024-02-01T06:46:09.602Z,81.69
2024-02-01T06:48:48.208Z,81.72
2024-02-01T06:51:23.527Z,81.64
2024-02-01T06:54:00.257Z,81.79
2024-02-01T06:56:50.535Z,81.93
2024-02-01T06:59:32.607Z,81.82
2024-02-01T07:02:26.071Z,81.85
2024-02-01T07:04:55.234Z,81.91
2024-02-01T07:07:33.827Z,81.85
2024-02-01T07:10:15.563Z,81.89
2024-02-01T07:12:54.554Z,82.08
2024-02-01T07:15:28.691Z,82.08
2024-02-01T07:18:01.424Z,82.13
2024-02-01T07:20:52.486Z,82.15
2024-02-01T07:23:21.942Z,82.07
2024-02-01T07:26:03.477Z,82.08
2024-02-01T07:28:50.508Z,82.01
2024-02-01T07:31:37.738Z,82.06
2024-02-01T07:34:24.491Z,82.04
2024-02-01T07:37:13.757Z,82.07
2024-02-01T07:40:00.487Z,82.04
2024-02-01T07:42:47.669Z,82.06
2024-02-01T07:45:34.627Z,81.98
2024-02-01T07:48:21.530Z,82.05
2024-02-01T07:51:08.107Z,82.03
2024-02-01T07:53:54.506Z,81.84
2024-02-01T07:56:41.203Z,82.13
2024-02-01T07:59:11.733Z,82.07
2024-02-01T08:01:59.813Z,82.18
2024-02-01T08:04:47.808Z,82.10
2024-02-01T08:07:37.476Z,82.37
2024-02-01T08:10:07.245Z,82.60
2024-02-01T08:12:35.900Z,82.49
2024-02-01T08:15:04.843Z,82.58
2024-02-01T08:17:33.513Z,82.91
2024-02-01T08:20:12.818Z,83.19
2024-02-01T08:22:43.064Z,83.17
2024-02-01T08:25:12.996Z,83.05
2024-02-01T08:27:55.265Z,83.88
2024-02-01T08:30:29.150Z,84.26
2024-02-01T08:33:16.960Z,83.66
2024-02-01T08:35:45.549Z,83.83
2024-02-01T08:38:14.917Z,83.95
2024-02-01T08:40:42.964Z,84.45
2024-02-01T08:43:14.592Z,84.20
2024-02-01T08:45:45.986Z,84.12
2024-02-01T08:48:15.069Z,84.28
2024-02-01T08:50:45.078Z,84.46
2024-02-01T08:53:21.892Z,84.80
2024-02-01T08:55:54.025Z,84.77
2024-02-01T08:58:22.866Z,85.21
2024-02-01T09:00:51.301Z,84.68
2024-02-01T09:03:31.353Z,85.16
2024-02-01T09:09:41.377Z,85.52
2024-02-01T09:12:11.368Z,85.29
2024-02-01T09:14:39.331Z,84.96
2024-02-01T09:17:08.532Z,85.11
2024-02-01T09:19:36.675Z,85.14
2024-02-01T09:22:09.430Z,85.05
2024-02-01T09:24:37.366Z,85.50
2024-02-01T09:27:10.036Z,85.70
2024-02-01T09:29:39.505Z,86.22
2024-02-01T09:32:07.559Z,86.01
2024-02-01T09:34:35.654Z,86.27
2024-02-01T09:37:05.117Z,87.08
2024-02-01T09:39:35.828Z,86.70
2024-02-01T09:42:13.275Z,86.90
2024-02-01T09:44:43.207Z,86.85
2024-02-01T09:47:13.540Z,87.31
2024-02-01T09:49:43.261Z,87.39
2024-02-01T09:52:11.662Z,87.02
2024-02-01T09:54:39.838Z,87.19
2024-02-01T09:57:16.180Z,87.33
2024-02-01T10:02:14.032Z,87.82
2024-02-01T10:04:44.187Z,88.03
2024-02-01T10:07:12.360Z,88.36
2024-02-01T10:09:40.428Z,87.56
2024-02-01T10:12:08.864Z,87.54
2024-02-01T10:14:40.179Z,87.22
2024-02-01T10:17:12.473Z,87.86
2024-02-01T10:19:42.297Z,88.46
2024-02-01T10:22:12.396Z,88.74
2024-02-01T10:24:46.826Z,88.29
2024-02-01T10:27:30.882Z,87.85
2024-02-01T10:30:11.464Z,88.17
2024-02-01T10:32:45.991Z,88.11
2024-02-01T10:35:18.273Z,88.13
2024-02-01T10:37:53.316Z,88.12
2024-02-01T10:40:30.812Z,88.35
2024-02-01T10:43:01.758Z,88.33
2024-02-01T10:45:36.893Z,88.42
2024-02-01T10:48:10.630Z,88.80
2024-02-01T10:50:39.377Z,88.61
2024-02-01T10:53:09.938Z,88.70
2024-02-01T10:55:41.422Z,88.53
2024-02-01T10:58:14.220Z,88.35
2024-02-01T11:00:48.396Z,88.26
2024-02-01T11:03:19.481Z,88.27
2024-02-01T11:05:47.596Z,88.63
2024-02-01T11:08:18.175Z,88.28
2024-02-01T11:10:54.985Z,88.23
2024-02-01T11:13:30.950Z,88.48
2024-02-01T11:15:59.940Z,88.09
2024-02-01T11:18:28.146Z,88.29
2024-02-01T11:20:58.112Z,88.47
2024-02-01T11:23:26.213Z,88.41
2024-02-01T11:25:57.197Z,88.38
2024-02-01T11:28:30.542Z,88.34
2024-02-01T11:31:07.813Z,88.31
2024-02-01T11:33:44.890Z,87.94
2024-02-01T11:36:12.940Z,88.09
2024-02-01T11:38:41.681Z,88.55
2024-02-01T11:41:09.681Z,88.63
2024-02-01T11:43:40.027Z,88.64
2024-02-01T11:46:09.033Z,88.48
2024-02-01T11:48:44.050Z,88.16
2024-02-01T11:51:18.937Z,88.20
2024-02-01T11:53:48.744Z,88.17
2024-02-01T11:56:19.380Z,88.22
2024-02-01T11:58:57.761Z,88.40
2024-02-01T12:01:28.906Z,88.54
2024-02-01T12:04:02.094Z,88.72
2024-02-01T12:06:30.324Z,88.56
2024-02-01T12:09:01.145Z,88.35
2024-02-01T12:11:35.944Z,88.37
2024-02-01T12:14:12.881Z,87.96
2024-02-01T12:16:42.548Z,87.67
2024-02-01T12:19:14.809Z,87.39
2024-02-01T12:21:47.717Z,87.13
2024-02-01T12:24:19.385Z,86.92
2024-02-01T12:26:48.473Z,86.74
2024-02-01T12:29:18.326Z,86.53
2024-02-01T12:31:50.951Z,86.41
2024-02-01T12:34:24.419Z,86.18
2024-02-01T12:36:54.437Z,86.24
2024-02-01T12:39:25.275Z,86.09
2024-02-01T12:41:53.387Z,86.01
2024-02-01T12:44:24.474Z,85.85
2024-02-01T12:46:52.736Z,85.71
2024-02-01T12:49:21.036Z,85.53
2024-02-01T12:51:49.209Z,85.44
2024-02-01T12:54:17.332Z,85.44
2024-02-01T12:56:48.089Z,85.44
2024-02-01T12:59:16.968Z,85.52
2024-02-01T13:01:45.061Z,85.52
2024-02-01T13:04:28.981Z,85.24
2024-02-01T13:06:57.290Z,84.78
2024-02-01T13:09:33.124Z,84.41
2024-02-01T13:12:01.513Z,84.29
2024-02-01T13:14:33.216Z,83.67
2024-02-01T13:17:11.680Z,83.50
2024-02-01T13:19:42.214Z,83.64
2024-02-01T13:22:10.964Z,83.21
2024-02-01T13:24:48.037Z,83.20
2024-02-01T13:27:19.143Z,83.31
2024-02-01T13:29:50.342Z,83.75
2024-02-01T13:32:18.692Z,83.29
2024-02-01T13:34:46.952Z,83.37
2024-02-01T13:37:15.396Z,83.18
2024-02-01T13:39:45.110Z,83.03
2024-02-01T13:42:14.468Z,82.39
2024-02-01T13:44:47.223Z,82.40
2024-02-01T13:47:15.641Z,82.02
2024-02-01T13:49:45.348Z,81.93
2024-02-01T13:52:14.247Z,82.19
2024-02-01T13:54:42.597Z,82.21
2024-02-01T13:57:10.678Z,81.61
2024-02-01T13:59:43.595Z,81.88
2024-02-01T14:02:14.124Z,82.16
2024-02-01T14:04:45.229Z,81.47
2024-02-01T14:07:19.460Z,81.37
2024-02-01T14:09:48.011Z,81.07
2024-02-01T14:12:15.990Z,80.73
2024-02-01T14:14:44.224Z,79.80
2024-02-01T14:17:13.640Z,79.46
2024-02-01T14:19:41.842Z,79.37
2024-02-01T14:22:13.194Z,79.82
2024-02-01T14:24:41.484Z,80.06
2024-02-01T14:27:10.637Z,80.33
2024-02-01T14:29:40.860Z,80.30
2024-02-01T14:32:09.091Z,79.96
2024-02-01T14:34:45.469Z,79.22
2024-02-01T14:37:14.371Z,77.10
2024-02-01T14:39:43.422Z,75.86
2024-02-01T14:42:11.650Z,75.36
2024-02-01T14:44:39.707Z,75.38
2024-02-01T14:47:11.865Z,75.42
2024-02-01T14:49:39.954Z,75.67
2024-02-01T14:52:10.920Z,75.72
2024-02-01T14:55:10.732Z,75.26
2024-02-01T14:57:39.360Z,75.46
2024-02-01T15:00:09.467Z,75.74
2024-02-01T15:02:37.713Z,75.89
2024-02-01T15:05:06.439Z,76.73
2024-02-01T15:07:35.050Z,76.75
2024-02-01T15:10:04.560Z,77.08
2024-02-01T15:12:33.313Z,77.34
2024-02-01T15:15:01.680Z,77.00
2024-02-01T15:17:32.549Z,76.95
2024-02-01T15:20:00.770Z,77.06
2024-02-01T15:22:29.616Z,77.50
2024-02-01T15:24:57.652Z,77.64
2024-02-01T15:27:28.026Z,77.15
2024-02-01T15:29:56.325Z,77.26
2024-02-01T15:32:24.877Z,77.56
2024-02-01T15:34:52.845Z,77.74
2024-02-01T15:37:21.312Z,77.66
2024-02-01T15:39:49.241Z,77.60
2024-02-01T15:42:17.399Z,77.59
2024-02-01T15:44:50.342Z,77.78
2024-02-01T15:47:19.698Z,78.04
2024-02-01T15:49:50.435Z,78.26
2024-02-01T15:52:18.726Z,78.27
2024-02-01T15:54:46.742Z,78.37
2024-02-01T15:57:17.906Z,78.30
2024-02-01T15:59:48.298Z,78.71
2024-02-01T16:02:16.297Z,78.57
2024-02-01T16:04:44.321Z,78.30
2024-02-01T16:07:12.529Z,78.18
2024-02-01T16:09:41.339Z,78.22
2024-02-01T16:12:19.118Z,78.16
2024-02-01T16:14:48.770Z,78.10
2024-02-01T16:17:18.245Z,78.25
2024-02-01T16:19:47.796Z,77.68
2024-02-01T16:22:34.591Z,77.96
2024-02-01T16:25:02.590Z,78.17
2024-02-01T16:27:50.603Z,78.22
2024-02-01T16:30:27.610Z,77.89
2024-02-01T16:32:55.624Z,77.90
2024-02-01T16:35:55.335Z,78.32
2024-02-01T16:38:31.055Z,78.30
2024-02-01T16:40:59.184Z,77.95
2024-02-01T16:43:39.823Z,77.70
2024-02-01T16:46:37.090Z,77.65
2024-02-01T16:49:07.830Z,77.76
2024-02-01T16:51:40.159Z,77.93
2024-02-01T16:54:10.396Z,77.80
2024-02-01T16:56:41.137Z,78.05
2024-02-01T16:59:11.558Z,78.09
2024-02-01T17:01:52.323Z,78.28
2024-02-01T17:04:26.327Z,78.42
2024-02-01T17:06:56.313Z,78.31
2024-02-01T17:09:28.419Z,77.91
2024-02-01T17:11:58.192Z,77.82
2024-02-01T17:14:35.285Z,77.57
2024-02-01T17:17:06.985Z,77.86
2024-02-01T17:19:40.345Z,77.81
2024-02-01T17:29:01.917Z,77.97
2024-02-01T17:31:35.748Z,77.87
2024-02-01T17:34:11.378Z,77.35
2024-02-01T17:36:40.013Z,77.53
2024-02-01T17:39:38.477Z,77.48
2024-02-01T17:42:11.820Z,78.20
2024-02-01T17:44:42.541Z,78.02
2024-02-01T17:47:12.787Z,77.99
2024-02-01T17:49:48.372Z,77.76
2024-02-01T17:52:28.747Z,78.30
2024-02-01T17:54:56.912Z,77.84
2024-02-01T17:57:41.043Z,77.80
2024-02-01T18:00:15.596Z,78.05
2024-02-01T18:02:46.436Z,78.09
2024-02-01T18:05:14.775Z,77.90
2024-02-01T18:07:44.696Z,77.85
2024-02-01T18:10:14.630Z,77.82
2024-02-01T18:12:45.072Z,77.88
2024-02-01T18:15:22.267Z,77.45
2024-02-01T18:17:50.504Z,77.33
2024-02-01T18:20:22.209Z,77.03
2024-02-01T18:22:53.174Z,76.86
2024-02-01T18:25:35.846Z,77.66
2024-02-01T18:28:06.232Z,77.63
2024-02-01T18:30:44.692Z,77.16
2024-02-01T18:33:14.925Z,77.60
2024-02-01T18:35:54.913Z,77.55
2024-02-01T18:39:02.854Z,77.47
2024-02-01T18:41:33.184Z,77.33
2024-02-01T18:44:13.272Z,76.96
2024-02-01T18:46:47.869Z,77.41
2024-02-01T18:49:20.033Z,77.16
2024-02-01T18:51:53.833Z,77.00
2024-02-01T18:54:26.510Z,76.59
2024-02-01T18:56:57.958Z,75.99
2024-02-01T18:59:44.371Z,76.33
2024-02-01T19:02:39.329Z,76.44
2024-02-01T19:05:07.492Z,76.33
2024-02-01T19:07:41.427Z,76.44
2024-02-01T19:10:29.266Z,76.73
2024-02-01T19:12:57.362Z,76.90
2024-02-01T19:15:36.638Z,76.68
2024-02-01T19:18:06.687Z,76.94
2024-02-01T19:20:34.757Z,76.80
2024-02-01T19:23:02.823Z,76.84
2024-02-01T19:25:32.704Z,76.86
2024-02-01T19:28:03.158Z,76.76
2024-02-01T19:30:41.877Z,77.02
2024-02-01T19:33:28.082Z,76.64
2024-02-01T19:35:56.269Z,76.28
2024-02-01T19:38:26.122Z,76.66
2024-02-01T19:40:54.929Z,76.65
2024-02-01T19:43:24.463Z,76.35
2024-02-01T19:45:52.406Z,76.48
2024-02-01T19:48:20.593Z,76.67
2024-02-01T19:50:48.703Z,77.05
2024-02-01T19:53:16.926Z,77.31
2024-02-01T19:55:45.061Z,77.44
2024-02-01T19:58:13.200Z,77.60
2024-02-01T20:00:41.407Z,77.75
2024-02-01T20:03:10.527Z,77.81
2024-02-01T20:05:38.894Z,77.92
2024-02-01T20:08:06.959Z,77.94
2024-02-01T20:10:36.131Z,78.09
2024-02-01T20:13:04.500Z,78.17
2024-02-01T20:15:32.829Z,78.26
2024-02-01T20:18:00.955Z,78.37
2024-02-01T20:20:29.102Z,78.42
2024-02-01T20:22:57.053Z,78.56
2024-02-01T20:25:26.150Z,78.57
2024-02-01T20:27:57.354Z,78.58
2024-02-01T20:30:26.508Z,78.80
2024-02-01T20:32:58.291Z,78.98
2024-02-01T20:35:27.081Z,79.19
2024-02-01T20:38:05.836Z,79.47
2024-02-01T20:40:37.646Z,79.38
2024-02-01T20:43:11.396Z,79.40
2024-02-01T20:45:39.756Z,79.62
2024-02-01T20:48:20.616Z,79.69
2024-02-01T20:50:52.292Z,79.81
2024-02-01T20:53:20.218Z,79.80
2024-02-01T20:55:50.421Z,79.76
2024-02-01T20:58:27.628Z,79.67
2024-02-01T21:00:57.461Z,79.66
2024-02-01T21:03:26.148Z,79.61
2024-02-01T21:05:55.446Z,79.60
2024-02-01T21:08:23.514Z,79.54
2024-02-01T21:10:51.914Z,79.58
2024-02-01T21:13:21.607Z,79.45
2024-02-01T21:15:53.770Z,79.43
2024-02-01T21:18:24.163Z,79.52
2024-02-01T21:20:54.506Z,79.33
2024-02-01T21:23:40.499Z,79.06
2024-02-01T21:26:26.092Z,79.17
2024-02-01T21:28:58.865Z,79.04
2024-02-01T21:31:27.124Z,78.90
2024-02-01T21:33:56.709Z,79.02
2024-02-01T21:36:26.692Z,78.94
2024-02-01T21:38:54.934Z,78.88
2024-02-01T21:41:30.067Z,78.94
2024-02-01T21:43:58.366Z,78.80
2024-02-01T21:46:33.826Z,78.71
2024-02-01T21:49:01.866Z,78.60
2024-02-01T21:51:30.121Z,78.54
2024-02-01T21:53:58.167Z,78.55
2024-02-01T21:56:26.812Z,78.52
2024-02-01T21:58:55.019Z,78.38
2024-02-01T22:01:23.110Z,78.37
2024-02-01T22:03:51.121Z,78.52
2024-02-01T22:06:19.203Z,78.63
2024-02-01T22:08:47.249Z,78.55
2024-02-01T22:11:15.235Z,78.53
2024-02-01T22:13:43.450Z,78.67
2024-02-01T22:16:12.030Z,78.72
2024-02-01T22:18:40.233Z,78.95
2024-02-01T22:21:08.484Z,79.08
2024-02-01T22:23:36.468Z,79.22
2024-02-01T22:26:04.863Z,79.44
2024-02-01T22:28:32.847Z,79.65
2024-02-01T22:31:00.933Z,80.08
2024-02-01T22:33:28.962Z,80.55
2024-02-01T22:35:57.183Z,80.77
2024-02-01T22:38:25.257Z,80.89
2024-02-01T22:40:53.289Z,81.17
2024-02-01T22:43:21.302Z,81.19
2024-02-01T22:45:49.312Z,81.26
2024-02-01T22:48:17.564Z,81.20
2024-02-01T22:50:46.959Z,81.16
2024-02-01T22:53:15.015Z,81.37
2024-02-01T22:55:42.949Z,81.83
2024-02-01T22:58:11.013Z,82.01
2024-02-01T23:00:39.038Z,81.68
2024-02-01T23:03:08.650Z,81.77
2024-02-01T23:05:36.681Z,81.96
2024-02-01T23:08:05.076Z,81.97
2024-02-01T23:10:33.107Z,81.94
2024-02-01T23:13:01.240Z,82.03
2024-02-01T23:15:29.196Z,82.15
2024-02-01T23:17:57.436Z,82.20
2024-02-01T23:20:25.431Z,82.38
2024-02-01T23:22:53.493Z,82.43
2024-02-01T23:25:21.926Z,82.50
2024-02-01T23:27:50.139Z,82.67
2024-02-01T23:30:18.402Z,82.47
2024-02-01T23:32:46.804Z,82.89
2024-02-01T23:35:15.122Z,83.26
2024-02-01T23:37:43.054Z,83.37
2024-02-01T23:40:12.355Z,83.24
2024-02-01T23:42:40.524Z,83.39
2024-02-01T23:45:12.225Z,83.41
2024-02-01T23:47:41.186Z,83.41
2024-02-01T23:50:09.581Z,83.48
2024-02-01T23:52:42.074Z,83.40
2024-02-01T23:55:10.572Z,83.03
2024-02-01T23:57:39.011Z,83.36
